sensor_id;sensor_type;location;lat;lon;timestamp;pressure;altitude;pressure_sealevel;temperature;humidity
28606;BME280;46498;49.968;7.754;2023-07-29T00:01:47;-18810.00;;;16.72;100.00
28606;BME280;46498;49.968;7.754;2023-07-29T00:06:50;-18805.00;;;16.55;100.00
28606;BME280;46498;49.968;7.754;2023-07-29T00:11:50;-18803.00;;;16.48;100.00
28606;BME280;46498;49.968;7.754;2023-07-29T00:16:51;-18801.00;;;16.42;100.00
28606;BME280;46498;49.968;7.754;2023-07-29T00:21:52;-18805.00;;;16.55;100.00
28606;BME280;46498;49.968;7.754;2023-07-29T00:26:53;-18803.00;;;16.50;100.00
28606;BME280;46498;49.968;7.754;2023-07-29T00:31:55;-18804.00;;;16.51;100.00
28606;BME280;46498;49.968;7.754;2023-07-29T00:36:56;-18803.00;;;16.49;100.00
28606;BME280;46498;49.968;7.754;2023-07-29T00:41:56;-18802.00;;;16.45;100.00
28606;BME280;46498;49.968;7.754;2023-07-29T00:46:58;-18799.00;;;16.37;100.00
28606;BME280;46498;49.968;7.754;2023-07-29T00:52:01;-18804.00;;;16.53;100.00
28606;BME280;46498;49.968;7.754;2023-07-29T00:57:02;-18802.00;;;16.45;100.00
28606;BME280;46498;49.968;7.754;2023-07-29T01:02:04;-18801.00;;;16.43;100.00
28606;BME280;46498;49.968;7.754;2023-07-29T01:07:22;-18802.00;;;16.45;100.00
28606;BME280;46498;49.968;7.754;2023-07-29T01:13:33;-18803.00;;;16.48;100.00
28606;BME280;46498;49.968;7.754;2023-07-29T01:18:38;-18802.00;;;16.45;100.00
28606;BME280;46498;49.968;7.754;2023-07-29T01:23:39;-18805.00;;;16.56;100.00
28606;BME280;46498;49.968;7.754;2023-07-29T01:28:40;-18803.00;;;16.49;100.00
28606;BME280;46498;49.968;7.754;2023-07-29T01:34:10;-18803.00;;;16.48;100.00
28606;BME280;46498;49.968;7.754;2023-07-29T01:39:15;-18806.00;;;16.59;100.00
28606;BME280;46498;49.968;7.754;2023-07-29T01:44:18;-18807.00;;;16.61;100.00
28606;BME280;46498;49.968;7.754;2023-07-29T01:49:21;-18806.00;;;16.58;100.00
28606;BME280;46498;49.968;7.754;2023-07-29T01:54:22;-18805.00;;;16.56;100.00
28606;BME280;46498;49.968;7.754;2023-07-29T01:59:23;-18804.00;;;16.53;100.00
28606;BME280;46498;49.968;7.754;2023-07-29T02:04:24;-18806.00;;;16.57;100.00
28606;BME280;46498;49.968;7.754;2023-07-29T02:09:25;-18806.00;;;16.58;100.00
28606;BME280;46498;49.968;7.754;2023-07-29T02:14:26;-18803.00;;;16.49;100.00
28606;BME280;46498;49.968;7.754;2023-07-29T02:19:27;-18802.00;;;16.46;100.00
28606;BME280;46498;49.968;7.754;2023-07-29T02:24:28;-18804.00;;;16.53;100.00
28606;BME280;46498;49.968;7.754;2023-07-29T02:29:29;-18805.00;;;16.55;100.00
28606;BME280;46498;49.968;7.754;2023-07-29T02:34:31;-18805.00;;;16.57;100.00
28606;BME280;46498;49.968;7.754;2023-07-29T02:39:32;-18800.00;;;16.38;100.00
28606;BME280;46498;49.968;7.754;2023-07-29T02:44:33;-18801.00;;;16.43;100.00
28606;BME280;46498;49.968;7.754;2023-07-29T02:49:34;-18804.00;;;16.52;100.00
28606;BME280;46498;49.968;7.754;2023-07-29T02:54:35;-18805.00;;;16.56;100.00
28606;BME280;46498;49.968;7.754;2023-07-29T02:59:35;-18807.00;;;16.62;100.00
28606;BME280;46498;49.968;7.754;2023-07-29T03:04:36;-18806.00;;;16.58;100.00
28606;BME280;46498;49.968;7.754;2023-07-29T03:09:38;-18804.00;;;16.53;100.00
28606;BME280;46498;49.968;7.754;2023-07-29T03:14:38;-18805.00;;;16.55;100.00
28606;BME280;46498;49.968;7.754;2023-07-29T03:19:40;-18808.00;;;16.64;100.00
28606;BME280;46498;49.968;7.754;2023-07-29T03:24:41;-18805.00;;;16.55;100.00
28606;BME280;46498;49.968;7.754;2023-07-29T03:29:43;-18804.00;;;16.52;100.00
28606;BME280;46498;49.968;7.754;2023-07-29T03:34:44;-18806.00;;;16.60;100.00
28606;BME280;46498;49.968;7.754;2023-07-29T03:39:45;-18805.00;;;16.54;100.00
28606;BME280;46498;49.968;7.754;2023-07-29T03:44:46;-18808.00;;;16.64;100.00
28606;BME280;46498;49.968;7.754;2023-07-29T03:49:47;-18807.00;;;16.61;100.00
28606;BME280;46498;49.968;7.754;2023-07-29T03:54:49;-18807.00;;;16.63;100.00
28606;BME280;46498;49.968;7.754;2023-07-29T03:59:50;-18806.00;;;16.57;100.00
28606;BME280;46498;49.968;7.754;2023-07-29T04:04:51;-18806.00;;;16.59;100.00
28606;BME280;46498;49.968;7.754;2023-07-29T04:09:52;-18808.00;;;16.65;100.00
28606;BME280;46498;49.968;7.754;2023-07-29T04:14:53;-18805.00;;;16.55;100.00
28606;BME280;46498;49.968;7.754;2023-07-29T04:19:54;-18803.00;;;16.48;100.00
28606;BME280;46498;49.968;7.754;2023-07-29T04:24:56;-18804.00;;;16.51;100.00
28606;BME280;46498;49.968;7.754;2023-07-29T04:29:57;-18805.00;;;16.55;100.00
28606;BME280;46498;49.968;7.754;2023-07-29T04:34:58;-18805.00;;;16.57;100.00
28606;BME280;46498;49.968;7.754;2023-07-29T04:39:59;-18804.00;;;16.53;100.00
28606;BME280;46498;49.968;7.754;2023-07-29T04:45:00;-18811.00;;;16.73;100.00
28606;BME280;46498;49.968;7.754;2023-07-29T04:50:01;-18809.00;;;16.69;100.00
28606;BME280;46498;49.968;7.754;2023-07-29T04:55:04;-18811.00;;;16.73;100.00
28606;BME280;46498;49.968;7.754;2023-07-29T05:00:06;-18812.00;;;16.77;100.00
28606;BME280;46498;49.968;7.754;2023-07-29T05:05:07;-18811.00;;;16.73;100.00
28606;BME280;46498;49.968;7.754;2023-07-29T05:10:08;-18814.00;;;16.84;100.00
28606;BME280;46498;49.968;7.754;2023-07-29T05:15:10;-18810.00;;;16.70;100.00
28606;BME280;46498;49.968;7.754;2023-07-29T05:20:11;-18811.00;;;16.73;100.00
28606;BME280;46498;49.968;7.754;2023-07-29T05:25:12;-18811.00;;;16.75;100.00
28606;BME280;46498;49.968;7.754;2023-07-29T05:30:13;-18812.00;;;16.76;100.00
28606;BME280;46498;49.968;7.754;2023-07-29T05:35:14;-18809.00;;;16.68;100.00
28606;BME280;46498;49.968;7.754;2023-07-29T05:40:16;-18813.00;;;16.82;100.00
28606;BME280;46498;49.968;7.754;2023-07-29T05:45:17;-18812.00;;;16.79;100.00
28606;BME280;46498;49.968;7.754;2023-07-29T05:50:18;-18812.00;;;16.76;100.00
28606;BME280;46498;49.968;7.754;2023-07-29T05:55:19;-18811.00;;;16.74;100.00
28606;BME280;46498;49.968;7.754;2023-07-29T06:00:20;-18811.00;;;16.74;100.00
28606;BME280;46498;49.968;7.754;2023-07-29T06:05:21;-18812.00;;;16.76;100.00
28606;BME280;46498;49.968;7.754;2023-07-29T06:10:23;-18814.00;;;16.83;100.00
28606;BME280;46498;49.968;7.754;2023-07-29T06:15:24;-18813.00;;;16.79;100.00
28606;BME280;46498;49.968;7.754;2023-07-29T06:20:25;-18811.00;;;16.75;100.00
28606;BME280;46498;49.968;7.754;2023-07-29T06:25:26;-18814.00;;;16.84;100.00
28606;BME280;46498;49.968;7.754;2023-07-29T06:30:26;-18812.00;;;16.76;100.00
28606;BME280;46498;49.968;7.754;2023-07-29T06:35:28;-18811.00;;;16.75;100.00
28606;BME280;46498;49.968;7.754;2023-07-29T06:40:28;-18813.00;;;16.80;100.00
28606;BME280;46498;49.968;7.754;2023-07-29T06:45:29;-18813.00;;;16.80;100.00
28606;BME280;46498;49.968;7.754;2023-07-29T06:50:30;-18814.00;;;16.85;100.00
28606;BME280;46498;49.968;7.754;2023-07-29T06:55:31;-18817.00;;;16.94;100.00
28606;BME280;46498;49.968;7.754;2023-07-29T07:00:32;-18816.00;;;16.89;100.00
28606;BME280;46498;49.968;7.754;2023-07-29T07:05:33;-18815.00;;;16.87;100.00
28606;BME280;46498;49.968;7.754;2023-07-29T07:10:34;-18809.00;;;16.69;100.00
28606;BME280;46498;49.968;7.754;2023-07-29T07:15:34;-18816.00;;;16.89;100.00
28606;BME280;46498;49.968;7.754;2023-07-29T07:20:35;-18823.00;;;17.11;100.00
28606;BME280;46498;49.968;7.754;2023-07-29T07:25:36;-18831.00;;;17.36;100.00
28606;BME280;46498;49.968;7.754;2023-07-29T07:30:40;-18838.00;;;17.60;100.00
28606;BME280;46498;49.968;7.754;2023-07-29T07:35:42;-18845.00;;;17.80;100.00
28606;BME280;46498;49.968;7.754;2023-07-29T07:40:52;-18849.00;;;17.94;100.00
28606;BME280;46498;49.968;7.754;2023-07-29T07:45:59;-18855.00;;;18.13;100.00
28606;BME280;46498;49.968;7.754;2023-07-29T07:51:22;-18865.00;;;18.44;100.00
28606;BME280;46498;49.968;7.754;2023-07-29T07:56:26;-18869.00;;;18.58;100.00
28606;BME280;46498;49.968;7.754;2023-07-29T08:01:27;-18871.00;;;18.65;100.00
28606;BME280;46498;49.968;7.754;2023-07-29T08:06:29;-18879.00;;;18.87;100.00
28606;BME280;46498;49.968;7.754;2023-07-29T08:11:30;-18875.00;;;18.76;100.00
28606;BME280;46498;49.968;7.754;2023-07-29T08:16:32;-18876.00;;;18.78;100.00
28606;BME280;46498;49.968;7.754;2023-07-29T08:21:33;-18872.00;;;18.68;100.00
28606;BME280;46498;49.968;7.754;2023-07-29T08:26:34;-18883.00;;;19.00;100.00
28606;BME280;46498;49.968;7.754;2023-07-29T08:31:35;-18891.00;;;19.24;100.00
28606;BME280;46498;49.968;7.754;2023-07-29T08:36:36;-18892.00;;;19.29;100.00
28606;BME280;46498;49.968;7.754;2023-07-29T08:41:47;-18891.00;;;19.26;100.00
28606;BME280;46498;49.968;7.754;2023-07-29T08:46:50;-18902.00;;;19.62;100.00
28606;BME280;46498;49.968;7.754;2023-07-29T08:51:53;-18901.00;;;19.57;100.00
28606;BME280;46498;49.968;7.754;2023-07-29T08:56:54;-18895.00;;;19.40;100.00
28606;BME280;46498;49.968;7.754;2023-07-29T09:01:56;-18888.00;;;19.17;100.00
28606;BME280;46498;49.968;7.754;2023-07-29T09:06:58;-18900.00;;;19.54;100.00
28606;BME280;46498;49.968;7.754;2023-07-29T09:11:59;-18914.00;;;19.99;100.00
28606;BME280;46498;49.968;7.754;2023-07-29T09:17:00;-18909.00;;;19.82;100.00
28606;BME280;46498;49.968;7.754;2023-07-29T09:22:01;-18906.00;;;19.72;100.00
28606;BME280;46498;49.968;7.754;2023-07-29T09:27:03;-18905.00;;;19.71;100.00
28606;BME280;46498;49.968;7.754;2023-07-29T09:32:20;-18901.00;;;19.58;100.00
28606;BME280;46498;49.968;7.754;2023-07-29T09:37:23;-18903.00;;;19.63;100.00
28606;BME280;46498;49.968;7.754;2023-07-29T09:42:24;-18913.00;;;19.95;100.00
28606;BME280;46498;49.968;7.754;2023-07-29T09:47:26;-18926.00;;;20.35;100.00
28606;BME280;46498;49.968;7.754;2023-07-29T09:52:28;-18932.00;;;20.56;100.00
28606;BME280;46498;49.968;7.754;2023-07-29T09:57:30;-18937.00;;;20.69;100.00
28606;BME280;46498;49.968;7.754;2023-07-29T10:02:31;-18926.00;;;20.35;97.51
28606;BME280;46498;49.968;7.754;2023-07-29T10:07:33;-18923.00;;;20.27;100.00
28606;BME280;46498;49.968;7.754;2023-07-29T10:12:35;-18927.00;;;20.38;100.00
28606;BME280;46498;49.968;7.754;2023-07-29T10:17:37;-18937.00;;;20.70;98.48
28606;BME280;46498;49.968;7.754;2023-07-29T10:22:42;-18938.00;;;20.73;97.21
28606;BME280;46498;49.968;7.754;2023-07-29T10:27:56;-18944.00;;;20.92;97.06
28606;BME280;46498;49.968;7.754;2023-07-29T10:33:02;-18942.00;;;20.86;98.61
28606;BME280;46498;49.968;7.754;2023-07-29T10:38:05;-18932.00;;;20.57;100.00
28606;BME280;46498;49.968;7.754;2023-07-29T10:43:11;-18926.00;;;20.35;100.00
28606;BME280;46498;49.968;7.754;2023-07-29T10:48:40;-18908.00;;;19.79;100.00
28606;BME280;46498;49.968;7.754;2023-07-29T10:53:41;-18909.00;;;19.82;100.00
28606;BME280;46498;49.968;7.754;2023-07-29T10:58:43;-18914.00;;;19.99;100.00
28606;BME280;46498;49.968;7.754;2023-07-29T11:04:46;-18918.00;;;20.11;100.00
28606;BME280;46498;49.968;7.754;2023-07-29T11:09:58;-18944.00;;;20.92;100.00
28606;BME280;46498;49.968;7.754;2023-07-29T11:15:28;-18954.00;;;21.23;100.00
28606;BME280;46498;49.968;7.754;2023-07-29T11:20:33;-18962.00;;;21.50;100.00
28606;BME280;46498;49.968;7.754;2023-07-29T11:25:34;-18959.00;;;21.39;100.00
28606;BME280;46498;49.968;7.754;2023-07-29T11:30:39;-18955.00;;;21.27;100.00
28606;BME280;46498;49.968;7.754;2023-07-29T11:35:40;-18941.00;;;20.82;100.00
28606;BME280;46498;49.968;7.754;2023-07-29T11:40:41;-18937.00;;;20.71;100.00
28606;BME280;46498;49.968;7.754;2023-07-29T11:45:42;-18945.00;;;20.95;100.00
28606;BME280;46498;49.968;7.754;2023-07-29T11:50:53;-18954.00;;;21.24;89.48
28606;BME280;46498;49.968;7.754;2023-07-29T11:55:55;-18954.00;;;21.24;93.77
28606;BME280;46498;49.968;7.754;2023-07-29T12:00:56;-18949.00;;;21.10;92.48
28606;BME280;46498;49.968;7.754;2023-07-29T12:05:57;-18971.00;;;21.77;89.56
28606;BME280;46498;49.968;7.754;2023-07-29T12:10:58;-18994.00;;;22.50;84.60
28606;BME280;46498;49.968;7.754;2023-07-29T12:16:03;-18982.00;;;22.12;75.99
28606;BME280;46498;49.968;7.754;2023-07-29T12:21:04;-18973.00;;;21.86;75.60
28606;BME280;46498;49.968;7.754;2023-07-29T12:26:05;-18990.00;;;22.37;75.09
28606;BME280;46498;49.968;7.754;2023-07-29T12:31:07;-19000.00;;;22.70;65.65
28606;BME280;46498;49.968;7.754;2023-07-29T12:36:08;-18988.00;;;22.33;69.18
28606;BME280;46498;49.968;7.754;2023-07-29T12:41:11;-18971.00;;;21.79;71.07
28606;BME280;46498;49.968;7.754;2023-07-29T12:46:12;-18974.00;;;21.86;78.38
28606;BME280;46498;49.968;7.754;2023-07-29T12:51:13;-18960.00;;;21.43;86.12
28606;BME280;46498;49.968;7.754;2023-07-29T12:56:13;-18965.00;;;21.60;90.48
28606;BME280;46498;49.968;7.754;2023-07-29T13:01:15;-18984.00;;;22.18;83.63
28606;BME280;46498;49.968;7.754;2023-07-29T13:06:19;-18998.00;;;22.65;81.77
28606;BME280;46498;49.968;7.754;2023-07-29T13:11:20;-19016.00;;;23.20;79.62
28606;BME280;46498;49.968;7.754;2023-07-29T13:16:21;-19017.00;;;23.24;71.99
28606;BME280;46498;49.968;7.754;2023-07-29T13:21:22;-19034.00;;;23.78;77.74
28606;BME280;46498;49.968;7.754;2023-07-29T13:26:24;-19055.00;;;24.42;70.95
28606;BME280;46498;49.968;7.754;2023-07-29T13:31:24;-19060.00;;;24.57;63.93
28606;BME280;46498;49.968;7.754;2023-07-29T13:36:25;-19063.00;;;24.67;63.32
28606;BME280;46498;49.968;7.754;2023-07-29T13:41:26;-19061.00;;;24.63;56.94
28606;BME280;46498;49.968;7.754;2023-07-29T13:46:27;-19048.00;;;24.20;59.46
28606;BME280;46498;49.968;7.754;2023-07-29T13:51:28;-19053.00;;;24.36;57.49
28606;BME280;46498;49.968;7.754;2023-07-29T13:56:29;-19040.00;;;23.96;58.85
28606;BME280;46498;49.968;7.754;2023-07-29T14:01:29;-19016.00;;;23.21;53.71
28606;BME280;46498;49.968;7.754;2023-07-29T14:06:32;-19027.00;;;23.56;55.48
28606;BME280;46498;49.968;7.754;2023-07-29T14:11:47;-19039.00;;;23.93;51.90
28606;BME280;46498;49.968;7.754;2023-07-29T14:16:48;-19035.00;;;23.81;52.81
28606;BME280;46498;49.968;7.754;2023-07-29T14:21:49;-19047.00;;;24.17;51.68
28606;BME280;46498;49.968;7.754;2023-07-29T14:26:50;-19056.00;;;24.47;50.66
28606;BME280;46498;49.968;7.754;2023-07-29T14:31:51;-19065.00;;;24.74;44.96
28606;BME280;46498;49.968;7.754;2023-07-29T14:36:52;-19041.00;;;23.97;47.62
28606;BME280;46498;49.968;7.754;2023-07-29T14:41:53;-19035.00;;;23.79;49.98
28606;BME280;46498;49.968;7.754;2023-07-29T14:46:54;-19016.00;;;23.18;53.34
28606;BME280;46498;49.968;7.754;2023-07-29T14:51:55;-19014.00;;;23.14;53.65
28606;BME280;46498;49.968;7.754;2023-07-29T14:56:56;-19017.00;;;23.23;52.53
28606;BME280;46498;49.968;7.754;2023-07-29T15:01:57;-19013.00;;;23.12;56.13
28606;BME280;46498;49.968;7.754;2023-07-29T15:06:57;-19012.00;;;23.07;55.55
28606;BME280;46498;49.968;7.754;2023-07-29T15:11:59;-19003.00;;;22.78;57.74
28606;BME280;46498;49.968;7.754;2023-07-29T15:17:00;-19003.00;;;22.78;60.36
28606;BME280;46498;49.968;7.754;2023-07-29T15:22:01;-19002.00;;;22.74;59.90
28606;BME280;46498;49.968;7.754;2023-07-29T15:27:05;-19015.00;;;23.17;57.88
28606;BME280;46498;49.968;7.754;2023-07-29T15:32:06;-19026.00;;;23.51;54.10
28606;BME280;46498;49.968;7.754;2023-07-29T15:37:08;-19029.00;;;23.62;54.44
28606;BME280;46498;49.968;7.754;2023-07-29T15:42:09;-19035.00;;;23.81;55.77
28606;BME280;46498;49.968;7.754;2023-07-29T15:47:10;-19020.00;;;23.32;54.51
28606;BME280;46498;49.968;7.754;2023-07-29T15:52:13;-19022.00;;;23.38;56.04
28606;BME280;46498;49.968;7.754;2023-07-29T15:57:17;-19017.00;;;23.22;54.41
28606;BME280;46498;49.968;7.754;2023-07-29T16:02:18;-19017.00;;;23.22;55.63
28606;BME280;46498;49.968;7.754;2023-07-29T16:07:19;-19021.00;;;23.35;52.63
28606;BME280;46498;49.968;7.754;2023-07-29T16:12:19;-19021.00;;;23.36;51.43
28606;BME280;46498;49.968;7.754;2023-07-29T16:17:21;-19022.00;;;23.39;50.92
28606;BME280;46498;49.968;7.754;2023-07-29T16:22:22;-19012.00;;;23.06;52.05
28606;BME280;46498;49.968;7.754;2023-07-29T16:27:23;-19014.00;;;23.14;51.07
28606;BME280;46498;49.968;7.754;2023-07-29T16:32:24;-19009.00;;;22.97;54.13
28606;BME280;46498;49.968;7.754;2023-07-29T16:37:25;-19010.00;;;23.01;54.01
28606;BME280;46498;49.968;7.754;2023-07-29T16:42:26;-19004.00;;;22.83;55.72
28606;BME280;46498;49.968;7.754;2023-07-29T16:47:27;-18995.00;;;22.53;57.99
28606;BME280;46498;49.968;7.754;2023-07-29T16:52:28;-18991.00;;;22.40;58.08
28606;BME280;46498;49.968;7.754;2023-07-29T16:57:29;-18991.00;;;22.41;60.18
28606;BME280;46498;49.968;7.754;2023-07-29T17:02:30;-18994.00;;;22.51;59.26
28606;BME280;46498;49.968;7.754;2023-07-29T17:07:31;-18996.00;;;22.55;59.72
28606;BME280;46498;49.968;7.754;2023-07-29T17:12:32;-18997.00;;;22.59;59.73
28606;BME280;46498;49.968;7.754;2023-07-29T17:17:32;-18993.00;;;22.48;61.05
28606;BME280;46498;49.968;7.754;2023-07-29T17:22:33;-18983.00;;;22.14;63.31
28606;BME280;46498;49.968;7.754;2023-07-29T17:27:35;-18975.00;;;21.91;62.22
28606;BME280;46498;49.968;7.754;2023-07-29T17:32:36;-18973.00;;;21.83;66.09
28606;BME280;46498;49.968;7.754;2023-07-29T17:37:37;-18974.00;;;21.88;65.51
28606;BME280;46498;49.968;7.754;2023-07-29T17:42:38;-18972.00;;;21.80;66.65
28606;BME280;46498;49.968;7.754;2023-07-29T17:47:39;-18965.00;;;21.58;66.57
28606;BME280;46498;49.968;7.754;2023-07-29T17:52:40;-18960.00;;;21.44;68.44
28606;BME280;46498;49.968;7.754;2023-07-29T17:57:41;-18956.00;;;21.30;70.48
28606;BME280;46498;49.968;7.754;2023-07-29T18:02:42;-18952.00;;;21.20;70.84
28606;BME280;46498;49.968;7.754;2023-07-29T18:07:43;-18951.00;;;21.14;70.86
28606;BME280;46498;49.968;7.754;2023-07-29T18:12:44;-18950.00;;;21.11;72.19
28606;BME280;46498;49.968;7.754;2023-07-29T18:17:45;-18947.00;;;21.03;72.35
28606;BME280;46498;49.968;7.754;2023-07-29T18:22:46;-18943.00;;;20.91;74.01
28606;BME280;46498;49.968;7.754;2023-07-29T18:27:48;-18940.00;;;20.80;75.65
28606;BME280;46498;49.968;7.754;2023-07-29T18:32:49;-18938.00;;;20.74;76.74
28606;BME280;46498;49.968;7.754;2023-07-29T18:37:50;-18937.00;;;20.69;77.89
28606;BME280;46498;49.968;7.754;2023-07-29T18:42:54;-18933.00;;;20.59;79.34
28606;BME280;46498;49.968;7.754;2023-07-29T18:47:55;-18933.00;;;20.58;79.31
28606;BME280;46498;49.968;7.754;2023-07-29T18:52:56;-18932.00;;;20.57;80.48
28606;BME280;46498;49.968;7.754;2023-07-29T18:57:58;-18928.00;;;20.41;81.77
28606;BME280;46498;49.968;7.754;2023-07-29T19:02:59;-18923.00;;;20.27;85.30
28606;BME280;46498;49.968;7.754;2023-07-29T19:08:00;-18915.00;;;20.01;87.51
28606;BME280;46498;49.968;7.754;2023-07-29T19:13:01;-18913.00;;;19.94;88.33
28606;BME280;46498;49.968;7.754;2023-07-29T19:18:04;-18914.00;;;19.98;88.47
28606;BME280;46498;49.968;7.754;2023-07-29T19:23:04;-18911.00;;;19.89;88.30
28606;BME280;46498;49.968;7.754;2023-07-29T19:28:05;-18908.00;;;19.81;88.74
28606;BME280;46498;49.968;7.754;2023-07-29T19:33:07;-18908.00;;;19.81;88.36
28606;BME280;46498;49.968;7.754;2023-07-29T19:38:08;-18904.00;;;19.68;90.06
28606;BME280;46498;49.968;7.754;2023-07-29T19:43:09;-18901.00;;;19.58;92.40
28606;BME280;46498;49.968;7.754;2023-07-29T19:48:10;-18898.00;;;19.48;95.30
28606;BME280;46498;49.968;7.754;2023-07-29T19:53:11;-18890.00;;;19.24;99.17
28606;BME280;46498;49.968;7.754;2023-07-29T19:58:12;-18886.00;;;19.10;100.00
28606;BME280;46498;49.968;7.754;2023-07-29T20:03:12;-18884.00;;;19.03;100.00
28606;BME280;46498;49.968;7.754;2023-07-29T20:08:13;-18879.00;;;18.88;100.00
28606;BME280;46498;49.968;7.754;2023-07-29T20:13:14;-18877.00;;;18.81;100.00
28606;BME280;46498;49.968;7.754;2023-07-29T20:18:15;-18877.00;;;18.83;100.00
28606;BME280;46498;49.968;7.754;2023-07-29T20:23:16;-18876.00;;;18.79;100.00
28606;BME280;46498;49.968;7.754;2023-07-29T20:28:17;-18878.00;;;18.85;100.00
28606;BME280;46498;49.968;7.754;2023-07-29T20:33:21;-18876.00;;;18.80;100.00
28606;BME280;46498;49.968;7.754;2023-07-29T20:38:22;-18878.00;;;18.84;100.00
28606;BME280;46498;49.968;7.754;2023-07-29T20:43:23;-18875.00;;;18.77;100.00
28606;BME280;46498;49.968;7.754;2023-07-29T20:48:24;-18874.00;;;18.72;100.00
28606;BME280;46498;49.968;7.754;2023-07-29T20:53:26;-18871.00;;;18.62;100.00
28606;BME280;46498;49.968;7.754;2023-07-29T20:58:26;-18871.00;;;18.65;100.00
28606;BME280;46498;49.968;7.754;2023-07-29T21:03:28;-18870.00;;;18.60;100.00
28606;BME280;46498;49.968;7.754;2023-07-29T21:08:29;-18867.00;;;18.51;100.00
28606;BME280;46498;49.968;7.754;2023-07-29T21:13:30;-18865.00;;;18.43;100.00
28606;BME280;46498;49.968;7.754;2023-07-29T21:18:31;-18857.00;;;18.19;100.00
28606;BME280;46498;49.968;7.754;2023-07-29T21:23:32;-18856.00;;;18.17;100.00
28606;BME280;46498;49.968;7.754;2023-07-29T21:28:33;-18858.00;;;18.22;100.00
28606;BME280;46498;49.968;7.754;2023-07-29T21:33:34;-18859.00;;;18.26;100.00
28606;BME280;46498;49.968;7.754;2023-07-29T21:38:36;-18856.00;;;18.17;100.00
28606;BME280;46498;49.968;7.754;2023-07-29T21:43:37;-18855.00;;;18.14;100.00
28606;BME280;46498;49.968;7.754;2023-07-29T21:48:38;-18854.00;;;18.11;100.00
28606;BME280;46498;49.968;7.754;2023-07-29T21:53:38;-18855.00;;;18.13;100.00
28606;BME280;46498;49.968;7.754;2023-07-29T21:58:39;-18857.00;;;18.19;100.00
28606;BME280;46498;49.968;7.754;2023-07-29T22:03:40;-18856.00;;;18.17;100.00
28606;BME280;46498;49.968;7.754;2023-07-29T22:08:41;-18857.00;;;18.20;100.00
28606;BME280;46498;49.968;7.754;2023-07-29T22:13:42;-18852.00;;;18.03;100.00
28606;BME280;46498;49.968;7.754;2023-07-29T22:18:43;-18850.00;;;17.96;100.00
28606;BME280;46498;49.968;7.754;2023-07-29T22:23:44;-18846.00;;;17.85;100.00
28606;BME280;46498;49.968;7.754;2023-07-29T22:29:00;-18844.00;;;17.77;100.00
28606;BME280;46498;49.968;7.754;2023-07-29T22:34:01;-18840.00;;;17.65;100.00
28606;BME280;46498;49.968;7.754;2023-07-29T22:39:03;-18846.00;;;17.85;100.00
28606;BME280;46498;49.968;7.754;2023-07-29T22:44:04;-18838.00;;;17.58;100.00
28606;BME280;46498;49.968;7.754;2023-07-29T22:49:05;-18833.00;;;17.44;100.00
28606;BME280;46498;49.968;7.754;2023-07-29T22:54:07;-18836.00;;;17.53;100.00
28606;BME280;46498;49.968;7.754;2023-07-29T22:59:08;-18840.00;;;17.67;100.00
28606;BME280;46498;49.968;7.754;2023-07-29T23:04:09;-18837.00;;;17.57;100.00
28606;BME280;46498;49.968;7.754;2023-07-29T23:09:10;-18836.00;;;17.53;100.00
28606;BME280;46498;49.968;7.754;2023-07-29T23:14:11;-18837.00;;;17.55;100.00
28606;BME280;46498;49.968;7.754;2023-07-29T23:19:12;-18834.00;;;17.46;100.00
28606;BME280;46498;49.968;7.754;2023-07-29T23:24:13;-18833.00;;;17.43;100.00
28606;BME280;46498;49.968;7.754;2023-07-29T23:29:13;-18834.00;;;17.48;100.00
28606;BME280;46498;49.968;7.754;2023-07-29T23:34:14;-18835.00;;;17.49;100.00
28606;BME280;46498;49.968;7.754;2023-07-29T23:39:15;-18832.00;;;17.41;100.00
28606;BME280;46498;49.968;7.754;2023-07-29T23:44:16;-18832.00;;;17.39;100.00
28606;BME280;46498;49.968;7.754;2023-07-29T23:49:17;-18827.00;;;17.23;100.00
28606;BME280;46498;49.968;7.754;2023-07-29T23:54:18;-18822.00;;;17.08;100.00
28606;BME280;46498;49.968;7.754;2023-07-29T23:59:19;-18820.00;;;17.02;100.00
